• Join FlightAware (Why Join?)
  • Login
  • US Flag 
12:14PM EDT


 

Airport Tracker/Info


-or-


 

Live Flight TrackerFlight Track Log ✈ N465TP ✈ 21-Aug-2013 ✈ KEKS - KCOD

Flight Track Log - Related Links

Times and Time Zones

All times are in EDT time to prevent confusion due to time zone crossing. See the N465TP flight status page for this flight to view local times or setup timezone preferences in your user account.

Time Position Orientation Groundspeed Altitude Reporting Facility
EDT Latitude Longitude Course Direction KTS MPH feet Rate Location/Type
06:47PM 45.3044 -111.5183 115° Southeast 139 160 11,400  Level Salt Lake Center
06:48PM 45.2867 -111.4636 115° Southeast 149 171 12,700 1,320 Climbing Salt Lake Center
06:49PM 45.2686 -111.4006 112° Southeast 167 192 14,200 1,320 Climbing Salt Lake Center
06:50PM 45.2494 -111.3350 113° Southeast 176 203 15,500 1,200 Climbing Salt Lake Center
06:51PM 45.2289 -111.2669 113° Southeast 185 213 16,700 1,080 Climbing Salt Lake Center
06:52PM 45.2089 -111.1997 113° Southeast 185 213 17,800 960 Climbing Salt Lake Center
06:53PM 45.1839 -111.1186 114° Southeast 187 215 18,800 540 Climbing Salt Lake Center
06:55PM 45.1594 -111.0419 114° Southeast 205 236 19,000 60 Climbing Salt Lake Center
06:56PM 45.1322 -110.9544 114° Southeast 230 265 19,000  Level Salt Lake Center
06:57PM 45.1044 -110.8606 113° Southeast 239 275 19,000  Level Salt Lake Center
06:58PM 45.0786 -110.7778 114° Southeast 240 276 19,000 -60 Level Salt Lake Center
06:59PM 45.0489 -110.6806 113° Southeast 240 276 18,900  Descending Salt Lake Center
07:00PM 45.0233 -110.5978 114° Southeast 240 276 19,000  Climbing Salt Lake Center
07:01PM 45.0131 -110.4964 98° East 243 280 19,000 -60 Level Salt Lake Center
07:02PM 45.0183 -110.4044 85° East 246 283 18,900 -60 Descending Salt Lake Center
07:03PM 45.0242 -110.3114 85° East 246 283 18,900  Level Salt Lake Center
07:04PM 45.0275 -110.2000 88° East 251 289 19,000  Climbing Salt Lake Center
07:05PM 45.0289 -110.1044 89° East 254 292 19,000  Level Salt Lake Center
07:06PM 44.9992 -110.0064 113° Southeast 246 283 19,000  Level Salt Lake Center
07:07PM 44.9617 -109.9289 124° Southeast 248 285 19,000  Level Salt Lake Center
07:08PM 44.9194 -109.8414 124° Southeast 244 281 19,000  Level Salt Lake Center
07:09PM 44.8833 -109.7669 124° Southeast 242 278 19,000 -300 Level Salt Lake Center
07:10PM 44.8411 -109.6806 125° Southeast 241 277 18,500 -1,020 Descending Salt Lake Center
07:11PM 44.8042 -109.6072 125° Southeast 240 276 17,000 -1,440 Descending Salt Lake Center
07:12PM 44.7692 -109.5372 125° Southeast 236 272 15,600 -1,320 Descending Salt Lake Center
07:13PM 44.7328 -109.4592 123° Southeast 225 259 14,400 -840 Descending Salt Lake Center
07:14PM 44.7142 -109.3956 112° Southeast 208 239 13,900 -720 Descending Salt Lake Center
07:15PM 44.6997 -109.3261 106° East 181 208 13,000 -900 Descending Salt Lake Center
07:16PM 44.6733 -109.2606 119° Southeast 177 204 12,100 -900 Descending Salt Lake Center